Time;durP1;ratioP1;P1;durP2;ratioP2;P2;SDS_P1;SDS_P2;PMS_P1;PMS_P2;Temp;Humidity;BMP_temperature;BMP_pressure;BME280_temperature;BME280_humidity;BME280_pressure;Samples;Min_cycle;Max_cycle;Signal;HPM_P1;HPM_P2
2022/04/19 00:00:38;;;;;;;0.20;0.20;;;7.80;92.60;;;;;;4968463;28;20039;-69
2022/04/19 00:03:06;;;;;;;0.30;0.30;;;7.70;92.20;;;;;;4984147;28;20129;-69
2022/04/19 00:05:36;;;;;;;0.22;0.22;;;7.70;92.40;;;;;;4966013;28;20042;-69
2022/04/19 00:08:04;;;;;;;0.85;0.82;;;7.70;93.30;;;;;;4971153;28;20084;-69
2022/04/19 00:10:30;;;;;;;0.30;0.30;;;7.60;93.20;;;;;;4971464;28;20401;-69
2022/04/19 00:13:00;;;;;;;2.90;2.78;;;7.60;93.30;;;;;;4982586;28;20038;-69
2022/04/19 00:15:28;;;;;;;0.30;0.30;;;7.50;93.30;;;;;;4967287;28;20042;-69
2022/04/19 00:17:56;;;;;;;3.72;2.67;;;7.40;93.70;;;;;;4986869;28;20484;-69
2022/04/19 00:20:22;;;;;;;0.28;0.28;;;7.40;94.10;;;;;;4988238;28;20435;-69
2022/04/19 00:22:49;;;;;;;0.30;0.30;;;7.30;93.80;;;;;;4959976;28;20065;-69
2022/04/19 00:25:16;;;;;;;1.58;1.13;;;7.30;94.20;;;;;;4971897;28;20073;-69
2022/04/19 00:27:41;;;;;;;0.28;0.28;;;7.20;92.60;;;;;;4947531;28;20051;-69
2022/04/19 00:30:08;;;;;;;0.35;0.35;;;7.30;94.10;;;;;;4967475;28;20487;-69
2022/04/19 00:32:35;;;;;;;0.75;0.75;;;7.30;93.10;;;;;;4967834;28;20046;-69
2022/04/19 00:35:01;;;;;;;0.40;0.40;;;7.40;92.80;;;;;;4971158;28;20076;-69
2022/04/19 00:37:27;;;;;;;0.38;0.38;;;7.40;93.80;;;;;;4968049;28;20445;-69
2022/04/19 00:39:53;;;;;;;0.30;0.30;;;7.50;93.80;;;;;;4971249;28;20038;-69
2022/04/19 00:42:19;;;;;;;0.30;0.30;;;7.50;94.30;;;;;;4963609;28;20157;-69
2022/04/19 00:44:44;;;;;;;0.20;0.20;;;7.50;94.30;;;;;;4965411;28;20181;-69
2022/04/19 00:47:11;;;;;;;0.13;0.13;;;7.40;94.70;;;;;;4985920;28;20065;-69
2022/04/19 00:49:40;;;;;;;0.20;0.20;;;7.30;95.00;;;;;;4958244;28;20480;-69
2022/04/19 00:52:07;;;;;;;0.20;0.20;;;7.30;95.10;;;;;;4955127;28;20449;-70
2022/04/19 00:54:32;;;;;;;0.25;0.25;;;7.20;95.80;;;;;;4968929;28;20038;-69
2022/04/19 00:56:59;;;;;;;0.20;0.20;;;7.20;96.00;;;;;;4962318;28;20553;-69
2022/04/19 00:59:25;;;;;;;0.20;0.20;;;7.20;96.10;;;;;;4969411;28;20050;-70
2022/04/19 01:01:50;;;;;;;0.30;0.30;;;7.10;96.10;;;;;;4970940;28;20042;-69
2022/04/19 01:04:16;;;;;;;0.30;0.30;;;7.00;96.10;;;;;;4971123;28;20125;-69
2022/04/19 01:06:42;;;;;;;0.28;0.28;;;7.00;96.20;;;;;;4961682;28;20057;-69
2022/04/19 01:09:08;;;;;;;0.30;0.30;;;6.90;96.50;;;;;;4985407;28;20471;-69
2022/04/19 01:14:19;;;;;;;0.20;0.20;;;7.00;97.40;;;;;;4961480;28;20157;-69
2022/04/19 01:16:45;;;;;;;0.30;0.30;;;7.00;97.40;;;;;;4969481;28;20120;-69
2022/04/19 01:19:16;;;;;;;0.28;0.28;;;7.00;97.50;;;;;;4967061;28;20038;-69
2022/04/19 01:21:49;;;;;;;0.30;0.30;;;7.00;97.60;;;;;;4945443;28;20050;-69
2022/04/19 01:24:19;;;;;;;1.38;1.38;;;6.90;97.50;;;;;;4969672;28;20049;-69
2022/04/19 01:26:45;;;;;;;0.30;0.30;;;6.80;97.50;;;;;;4939289;28;20085;-69
2022/04/19 01:29:12;;;;;;;0.30;0.30;;;6.80;97.60;;;;;;4963173;28;20501;-70
2022/04/19 01:31:40;;;;;;;0.30;0.30;;;6.70;97.80;;;;;;4965435;28;20042;-69
2022/04/19 01:34:06;;;;;;;0.30;0.30;;;6.60;98.00;;;;;;4986363;28;20034;-70
2022/04/19 01:36:36;;;;;;;0.43;0.43;;;6.60;98.20;;;;;;4966558;28;20525;-69
2022/04/19 01:39:10;;;;;;;0.40;0.40;;;6.50;98.40;;;;;;4972977;28;20026;-69
2022/04/19 01:41:37;;;;;;;0.30;0.30;;;6.40;98.80;;;;;;4958897;28;20072;-69
2022/04/19 01:44:05;;;;;;;2.42;1.27;;;6.40;99.10;;;;;;4974431;28;20053;-69
2022/04/19 01:46:31;;;;;;;0.30;0.30;;;6.40;99.60;;;;;;4974892;28;20045;-69
2022/04/19 01:48:57;;;;;;;0.30;0.30;;;6.30;99.30;;;;;;4968676;28;20093;-69
2022/04/19 01:51:24;;;;;;;0.20;0.20;;;6.30;99.50;;;;;;4970188;28;20038;-69
2022/04/19 01:53:50;;;;;;;0.60;0.60;;;6.30;99.80;;;;;;4972951;28;20061;-69
2022/04/19 01:56:17;;;;;;;0.50;0.50;;;6.20;99.60;;;;;;4968362;28;20150;-69
2022/04/19 01:58:43;;;;;;;0.30;0.30;;;6.20;99.90;;;;;;4970023;28;20046;-69
2022/04/19 02:01:09;;;;;;;0.30;0.30;;;6.20;99.90;;;;;;4962895;28;20047;-69
2022/04/19 02:03:35;;;;;;;0.50;0.50;;;6.20;99.90;;;;;;4972428;28;20093;-69
2022/04/19 02:06:01;;;;;;;0.52;0.52;;;6.20;99.90;;;;;;4968411;28;20042;-69
2022/04/19 02:08:27;;;;;;;0.30;0.30;;;6.10;99.90;;;;;;4954201;28;20393;-69
2022/04/19 02:10:53;;;;;;;0.40;0.40;;;6.10;99.90;;;;;;4958558;28;20097;-69
2022/04/19 02:13:20;;;;;;;0.82;0.77;;;6.10;99.90;;;;;;4973770;28;20046;-69
2022/04/19 02:15:46;;;;;;;0.95;0.95;;;6.10;99.90;;;;;;4967262;28;20449;-71
2022/04/19 02:18:12;;;;;;;1.63;1.50;;;6.10;99.90;;;;;;4974921;28;20049;-69
2022/04/19 02:20:38;;;;;;;0.30;0.30;;;6.00;99.90;;;;;;4960175;28;20046;-69
2022/04/19 02:23:04;;;;;;;0.60;0.60;;;6.00;99.90;;;;;;4960400;28;20061;-69
2022/04/19 02:25:30;;;;;;;0.30;0.30;;;6.10;99.90;;;;;;4967349;28;20051;-69
2022/04/19 02:27:55;;;;;;;1.83;1.67;;;6.10;99.90;;;;;;4971249;28;20062;-69
2022/04/19 02:30:21;;;;;;;1.15;1.15;;;6.10;99.90;;;;;;4972309;28;20045;-69
2022/04/19 02:32:48;;;;;;;0.30;0.30;;;6.10;99.90;;;;;;4951952;28;20049;-69
2022/04/19 02:35:17;;;;;;;0.30;0.30;;;6.10;99.90;;;;;;4956795;28;20122;-69
2022/04/19 02:37:51;;;;;;;0.38;0.38;;;6.00;99.90;;;;;;4955374;28;20049;-69
2022/04/19 02:40:22;;;;;;;4.50;1.70;;;6.00;99.90;;;;;;4961697;28;20121;-69
2022/04/19 02:42:49;;;;;;;0.38;0.38;;;6.00;99.90;;;;;;4981314;28;20101;-69
2022/04/19 02:45:16;;;;;;;0.30;0.30;;;6.00;99.90;;;;;;4971826;28;20073;-69
2022/04/19 02:47:42;;;;;;;0.65;0.65;;;5.90;99.90;;;;;;4969150;28;20068;-69
2022/04/19 02:50:08;;;;;;;3.20;2.08;;;5.80;99.90;;;;;;4962584;28;20047;-69
2022/04/19 02:52:34;;;;;;;1.02;1.02;;;5.80;99.90;;;;;;4959959;28;20415;-69
2022/04/19 02:55:00;;;;;;;1.40;1.30;;;5.80;99.90;;;;;;4972646;28;20046;-69
2022/04/19 02:57:26;;;;;;;0.30;0.30;;;5.80;99.90;;;;;;4950109;28;20165;-69
2022/04/19 02:59:53;;;;;;;2.05;1.85;;;5.80;99.90;;;;;;4952274;28;20085;-69
2022/04/19 03:02:19;;;;;;;0.50;0.50;;;5.70;99.90;;;;;;4963655;28;20046;-69
2022/04/19 03:04:45;;;;;;;0.30;0.30;;;5.70;99.90;;;;;;4971515;28;20074;-69
2022/04/19 03:07:14;;;;;;;0.50;0.50;;;5.60;99.90;;;;;;4972235;28;20141;-69
2022/04/19 03:09:41;;;;;;;0.30;0.30;;;5.50;99.90;;;;;;4966231;28;20031;-69
2022/04/19 03:12:10;;;;;;;0.30;0.30;;;5.40;99.90;;;;;;4952286;28;20043;-69
2022/04/19 03:14:36;;;;;;;0.35;0.35;;;5.40;99.90;;;;;;4972638;28;20066;-69
2022/04/19 03:17:01;;;;;;;0.30;0.30;;;5.30;99.90;;;;;;4987018;28;20073;-69
2022/04/19 03:19:27;;;;;;;0.77;0.77;;;5.30;99.90;;;;;;4968884;28;20125;-69
2022/04/19 03:21:52;;;;;;;0.57;0.55;;;5.30;99.90;;;;;;4961141;28;20419;-69
2022/04/19 03:29:46;;;;;;;0.30;0.30;;;5.20;99.90;;;;;;4978331;28;20042;-69
2022/04/19 03:32:12;;;;;;;0.40;0.40;;;5.20;99.90;;;;;;4984093;28;20042;-69
2022/04/19 03:34:39;;;;;;;0.57;0.57;;;5.20;99.90;;;;;;4957139;28;20088;-69
2022/04/19 03:37:06;;;;;;;0.70;0.70;;;5.10;99.90;;;;;;4971443;28;20042;-69
2022/04/19 03:39:31;;;;;;;0.30;0.30;;;5.10;99.90;;;;;;4953715;28;20049;-69
2022/04/19 03:41:58;;;;;;;0.30;0.30;;;5.10;99.90;;;;;;4987075;28;20054;-69
2022/04/19 03:44:25;;;;;;;0.30;0.30;;;5.10;99.90;;;;;;4971778;28;20137;-69
2022/04/19 03:47:10;;;;;;;0.30;0.30;;;5.10;99.90;;;;;;4972176;28;20093;-69
2022/04/19 03:49:41;;;;;;;0.77;0.77;;;5.20;99.90;;;;;;4987926;28;20046;-69
2022/04/19 03:52:08;;;;;;;0.57;0.57;;;5.20;99.90;;;;;;4971856;28;20046;-69
2022/04/19 03:54:34;;;;;;;0.55;0.55;;;5.20;99.90;;;;;;4960606;28;20130;-69
2022/04/19 03:57:06;;;;;;;0.32;0.32;;;5.30;99.90;;;;;;4971014;28;20043;-69
2022/04/19 03:59:33;;;;;;;0.30;0.30;;;5.30;99.90;;;;;;4949930;28;20525;-69
2022/04/19 04:01:59;;;;;;;1.58;1.48;;;5.30;99.90;;;;;;4968870;28;20771;-69
2022/04/19 04:04:30;;;;;;;0.50;0.50;;;5.40;99.90;;;;;;4974942;28;20038;-69
2022/04/19 04:06:57;;;;;;;0.40;0.40;;;5.40;99.90;;;;;;4961869;28;20046;-69
2022/04/19 04:09:32;;;;;;;0.40;0.40;;;5.40;99.90;;;;;;4965367;28;20038;-69
2022/04/19 04:12:02;;;;;;;0.40;0.40;;;5.40;99.90;;;;;;4955360;28;20120;-69
2022/04/19 04:14:29;;;;;;;0.40;0.40;;;5.30;99.90;;;;;;4960414;28;20034;-69
2022/04/19 04:16:55;;;;;;;0.47;0.47;;;5.30;99.90;;;;;;4984415;28;20078;-69
2022/04/19 04:19:20;;;;;;;0.30;0.30;;;5.30;99.90;;;;;;4984432;28;20153;-69
2022/04/19 04:21:55;;;;;;;0.43;0.43;;;5.20;99.90;;;;;;5146034;27;20717;-69
2022/04/19 04:24:21;;;;;;;0.40;0.40;;;5.10;99.90;;;;;;5101361;28;20130;-69
2022/04/19 04:26:47;;;;;;;0.30;0.30;;;5.10;99.90;;;;;;5104449;28;20180;-69
2022/04/19 04:29:12;;;;;;;0.60;0.60;;;5.00;99.90;;;;;;5106391;28;20516;-69
2022/04/19 04:31:38;;;;;;;0.40;0.40;;;4.90;99.90;;;;;;5090894;28;20444;-69
2022/04/19 04:34:07;;;;;;;0.40;0.40;;;4.90;99.90;;;;;;5105141;28;20550;-69
2022/04/19 04:36:33;;;;;;;0.30;0.30;;;4.90;99.90;;;;;;5105960;28;20039;-69
2022/04/19 04:38:59;;;;;;;0.55;0.55;;;4.80;99.90;;;;;;5088805;28;20403;-69
2022/04/19 04:41:24;;;;;;;0.88;0.88;;;4.80;99.90;;;;;;5098900;28;20043;-69
2022/04/19 04:43:50;;;;;;;0.45;0.45;;;4.80;99.90;;;;;;5093984;28;20043;-69
2022/04/19 04:51:44;;;;;;;0.30;0.30;;;5.00;99.90;;;;;;5086503;28;20065;-69
2022/04/19 04:54:09;;;;;;;1.70;1.60;;;5.00;99.90;;;;;;5114859;28;20089;-69
2022/04/19 04:56:35;;;;;;;0.60;0.60;;;5.00;99.90;;;;;;5112928;28;20035;-69
2022/04/19 04:59:00;;;;;;;1.95;1.13;;;5.00;99.90;;;;;;5083377;28;21200;-68
2022/04/19 05:01:26;;;;;;;0.30;0.30;;;5.10;99.90;;;;;;5111103;28;20036;-69
2022/04/19 05:03:51;;;;;;;0.82;0.82;;;5.10;99.90;;;;;;5086901;28;20047;-69
2022/04/19 05:06:17;;;;;;;0.35;0.35;;;5.20;99.90;;;;;;5085671;28;20437;-69
2022/04/19 05:08:43;;;;;;;0.30;0.30;;;5.20;99.90;;;;;;5089610;28;20043;-69
2022/04/19 05:11:09;;;;;;;0.60;0.60;;;5.30;99.90;;;;;;5111518;28;20087;-69
2022/04/19 05:13:34;;;;;;;0.30;0.30;;;5.50;99.90;;;;;;5106586;28;20109;-69
2022/04/19 05:16:01;;;;;;;0.40;0.40;;;5.80;99.90;;;;;;5102930;28;20028;-69
2022/04/19 05:18:26;;;;;;;0.40;0.40;;;6.00;99.90;;;;;;5089370;28;20063;-69
2022/04/19 05:20:52;;;;;;;0.40;0.40;;;6.00;99.90;;;;;;5088342;28;20533;-69
2022/04/19 05:23:19;;;;;;;1.15;1.15;;;6.00;99.90;;;;;;5089667;28;20050;-69
2022/04/19 05:25:45;;;;;;;1.08;1.08;;;6.00;99.90;;;;;;5107208;28;20495;-69
2022/04/19 05:28:10;;;;;;;0.30;0.30;;;6.20;99.90;;;;;;5089013;28;20044;-69
2022/04/19 05:30:36;;;;;;;0.22;0.22;;;6.70;99.90;;;;;;5103427;28;20180;-69
2022/04/19 05:33:02;;;;;;;0.30;0.30;;;7.70;99.90;;;;;;5073810;28;20116;-70
2022/04/19 05:35:28;;;;;;;12.15;2.50;;;8.70;99.90;;;;;;5079892;28;20432;-69
2022/04/19 05:37:55;;;;;;;1.10;1.10;;;9.50;99.90;;;;;;5080231;28;20092;-70
2022/04/19 05:40:21;;;;;;;1.30;1.27;;;9.70;99.90;;;;;;5061301;28;20040;-69
2022/04/19 05:42:47;;;;;;;0.68;0.68;;;9.60;99.90;;;;;;5080415;28;20106;-69
2022/04/19 05:45:13;;;;;;;4.68;1.77;;;9.30;99.90;;;;;;5110260;28;20071;-69
2022/04/19 05:47:38;;;;;;;3.03;2.47;;;9.10;99.90;;;;;;5073979;28;20396;-69
2022/04/19 05:50:04;;;;;;;4.32;2.05;;;8.80;99.90;;;;;;5080904;28;20106;-70
2022/04/19 05:52:30;;;;;;;4.43;3.33;;;8.60;99.90;;;;;;5060818;28;20035;-69
2022/04/19 05:54:55;;;;;;;2.65;2.38;;;8.50;99.90;;;;;;5083792;28;20093;-69
2022/04/19 05:57:21;;;;;;;2.83;1.70;;;8.40;99.90;;;;;;5068921;28;20501;-69
2022/04/19 05:59:46;;;;;;;3.00;1.73;;;8.30;99.90;;;;;;5086730;28;20054;-70
2022/04/19 06:04:57;;;;;;;3.30;2.97;;;8.40;99.90;;;;;;5090128;28;20048;-69
2022/04/19 06:07:25;;;;;;;1.10;1.10;;;8.40;99.90;;;;;;5085199;28;20397;-69
2022/04/19 06:09:50;;;;;;;2.08;1.45;;;8.60;99.90;;;;;;5117958;27;20044;-69
2022/04/19 06:12:16;;;;;;;8.80;4.35;;;8.90;99.90;;;;;;5096095;28;20048;-70
2022/04/19 06:14:42;;;;;;;1.90;0.88;;;9.40;99.90;;;;;;5113114;27;20136;-69
2022/04/19 06:17:11;;;;;;;1.52;1.42;;;10.20;99.90;;;;;;5074631;28;20101;-69
2022/04/19 06:19:37;;;;;;;3.67;2.10;;;10.90;99.90;;;;;;5070545;28;20047;-70
2022/04/19 06:22:04;;;;;;;4.70;1.67;;;11.30;99.90;;;;;;5052665;28;20048;-70
2022/04/19 06:24:29;;;;;;;5.97;1.98;;;11.50;99.90;;;;;;5073680;28;20039;-69
2022/04/19 06:26:55;;;;;;;10.45;2.70;;;11.60;99.90;;;;;;5109337;28;20043;-70
2022/04/19 06:29:21;;;;;;;7.15;4.38;;;11.60;99.90;;;;;;5109817;28;20563;-70
2022/04/19 06:31:46;;;;;;;6.25;3.97;;;11.70;99.90;;;;;;5094196;28;20043;-70
2022/04/19 06:34:12;;;;;;;3.78;2.42;;;11.60;99.90;;;;;;5069275;28;20485;-70
2022/04/19 06:36:38;;;;;;;5.35;2.55;;;11.50;99.90;;;;;;5102867;28;20048;-70
2022/04/19 06:39:04;;;;;;;0.80;0.80;;;11.60;99.90;;;;;;5105224;28;20047;-70
2022/04/19 06:41:30;;;;;;;4.03;3.28;;;11.70;99.90;;;;;;5052438;28;20032;-70
2022/04/19 06:43:58;;;;;;;3.00;2.20;;;11.90;99.90;;;;;;5058023;28;20388;-70
2022/04/19 06:46:26;;;;;;;5.15;2.25;;;12.10;99.90;;;;;;5087093;28;20542;-70
2022/04/19 06:48:59;;;;;;;4.90;2.95;;;12.60;99.90;;;;;;5072414;28;20067;-70
2022/04/19 06:51:25;;;;;;;3.47;1.95;;;13.20;99.20;;;;;;5088567;28;20043;-70
2022/04/19 06:53:51;;;;;;;4.30;3.08;;;13.30;98.20;;;;;;5114856;27;20385;-70
2022/04/19 06:56:17;;;;;;;3.45;2.15;;;12.90;97.50;;;;;;5094267;28;20396;-70
2022/04/19 06:58:44;;;;;;;6.82;3.58;;;12.50;98.30;;;;;;5101884;28;20039;-70
2022/04/19 07:01:12;;;;;;;3.78;2.20;;;12.40;99.20;;;;;;5091712;28;20077;-70
2022/04/19 07:03:38;;;;;;;4.65;1.70;;;12.50;99.00;;;;;;5091677;28;20598;-70
2022/04/19 07:06:06;;;;;;;9.82;2.70;;;12.40;99.00;;;;;;5081808;28;20074;-70
2022/04/19 07:08:31;;;;;;;0.90;0.88;;;12.20;99.80;;;;;;5070917;28;20055;-70
2022/04/19 07:10:57;;;;;;;5.25;2.90;;;12.00;99.90;;;;;;5089419;28;20490;-70
2022/04/19 07:13:24;;;;;;;0.25;0.25;;;11.90;99.90;;;;;;5086906;28;20094;-70
2022/04/19 07:15:50;;;;;;;4.72;2.78;;;11.90;99.90;;;;;;5090693;28;20130;-70
2022/04/19 07:18:17;;;;;;;0.77;0.73;;;12.10;99.90;;;;;;5084176;28;20155;-71
2022/04/19 07:28:55;;;;;;;5.25;2.63;;;12.30;99.70;;;;;;5082064;28;20045;-70
2022/04/19 07:31:21;;;;;;;1.25;1.25;;;12.40;99.80;;;;;;5086903;28;20047;-70
2022/04/19 07:33:46;;;;;;;4.97;3.08;;;12.40;99.80;;;;;;5086028;28;20048;-70
2022/04/19 07:36:12;;;;;;;2.17;1.98;;;12.50;99.70;;;;;;5085354;28;20507;-70
2022/04/19 07:38:38;;;;;;;6.28;2.78;;;12.60;98.90;;;;;;5081850;28;20048;-70
2022/04/19 07:41:04;;;;;;;10.43;2.92;;;12.70;99.00;;;;;;5084850;28;20454;-70
2022/04/19 07:43:30;;;;;;;2.83;0.77;;;12.80;98.80;;;;;;5085479;28;20039;-70
2022/04/19 07:45:56;;;;;;;4.20;2.83;;;12.90;98.50;;;;;;5084920;28;20078;-70
2022/04/19 07:48:22;;;;;;;1.40;1.30;;;12.90;98.10;;;;;;5068501;28;20121;-70
2022/04/19 07:50:47;;;;;;;2.20;2.00;;;13.00;98.10;;;;;;5082569;28;20050;-70
2022/04/19 07:53:13;;;;;;;4.35;3.22;;;13.10;98.50;;;;;;5070318;28;20925;-70
2022/04/19 07:55:39;;;;;;;2.65;1.98;;;13.20;97.90;;;;;;5084755;28;20040;-70
2022/04/19 07:58:04;;;;;;;0.30;0.30;;;13.20;97.80;;;;;;5063889;28;20051;-70
2022/04/19 08:00:30;;;;;;;1.08;0.98;;;13.20;97.50;;;;;;5069197;28;20032;-70
2022/04/19 08:02:57;;;;;;;2.80;1.65;;;13.30;97.60;;;;;;5085646;28;20040;-70
2022/04/19 08:05:26;;;;;;;3.88;2.20;;;13.40;97.10;;;;;;5087112;28;20036;-70
2022/04/19 08:07:52;;;;;;;8.55;3.70;;;13.40;96.90;;;;;;5085831;28;20043;-70
2022/04/19 08:10:18;;;;;;;2.92;2.20;;;13.50;96.00;;;;;;5099070;28;20536;-70
2022/04/19 08:12:45;;;;;;;6.70;2.78;;;13.50;94.80;;;;;;5068003;28;20044;-70
2022/04/19 08:15:11;;;;;;;0.88;0.88;;;13.60;95.10;;;;;;5070204;28;20052;-70
2022/04/19 08:17:37;;;;;;;1.35;1.25;;;13.60;95.10;;;;;;5098549;28;20174;-70
2022/04/19 08:20:04;;;;;;;1.55;1.45;;;13.60;95.30;;;;;;5085236;28;20056;-70
2022/04/19 08:22:30;;;;;;;4.25;2.50;;;13.70;95.40;;;;;;5069382;28;20085;-70
2022/04/19 08:24:55;;;;;;;11.55;3.08;;;13.70;96.10;;;;;;5105266;28;20391;-70
2022/04/19 08:27:21;;;;;;;1.90;1.52;;;13.80;95.30;;;;;;5068070;28;20484;-70
2022/04/19 08:29:48;;;;;;;6.03;3.35;;;13.80;95.50;;;;;;5078276;28;20127;-70
2022/04/19 08:32:14;;;;;;;5.88;3.17;;;13.90;94.30;;;;;;5092055;28;20071;-70
2022/04/19 08:34:40;;;;;;;2.15;1.85;;;14.00;93.50;;;;;;5083350;28;20076;-70
2022/04/19 08:37:07;;;;;;;4.13;1.95;;;14.00;94.40;;;;;;5084740;28;20036;-70
2022/04/19 08:39:33;;;;;;;2.45;1.63;;;14.10;94.10;;;;;;5082934;28;20039;-70
2022/04/19 08:41:59;;;;;;;4.20;2.63;;;14.20;94.00;;;;;;5070858;28;20040;-70
2022/04/19 08:44:25;;;;;;;3.83;2.55;;;14.50;93.50;;;;;;5079926;28;20426;-70
2022/04/19 08:46:54;;;;;;;2.63;2.10;;;15.20;91.20;;;;;;5074947;28;20407;-70
2022/04/19 08:49:20;;;;;;;2.03;1.67;;;15.80;83.70;;;;;;5099060;28;20377;-70
2022/04/19 08:51:46;;;;;;;2.35;1.65;;;16.30;79.90;;;;;;5088787;28;20499;-70
2022/04/19 08:59:40;;;;;;;2.42;1.83;;;17.50;68.60;;;;;;5086706;28;20052;-70
2022/04/19 09:02:07;;;;;;;1.98;1.33;;;17.80;66.60;;;;;;5086777;28;20036;-71
2022/04/19 09:04:33;;;;;;;3.13;1.65;;;18.00;59.40;;;;;;5086514;28;20028;-71
2022/04/19 09:07:00;;;;;;;1.42;1.25;;;17.90;55.80;;;;;;5088777;28;20401;-71
2022/04/19 09:09:34;;;;;;;3.03;1.58;;;17.90;55.00;;;;;;5090976;28;20392;-71
2022/04/19 09:12:11;;;;;;;3.20;1.35;;;17.70;52.80;;;;;;5091116;28;20439;-71
2022/04/19 09:14:56;;;;;;;1.20;1.10;;;17.70;51.30;;;;;;5104758;28;20035;-70
2022/04/19 09:17:49;;;;;;;1.02;1.02;;;17.90;51.40;;;;;;5089372;28;20043;-69
2022/04/19 09:20:18;;;;;;;2.50;1.60;;;18.00;52.20;;;;;;5115241;27;20132;-69
2022/04/19 09:22:51;;;;;;;0.60;0.60;;;18.20;51.20;;;;;;5085663;28;20125;-69
2022/04/19 09:25:26;;;;;;;0.80;0.80;;;18.20;51.80;;;;;;5091296;28;20036;-69
2022/04/19 09:27:54;;;;;;;2.33;1.13;;;18.40;51.00;;;;;;5106900;28;20125;-69
2022/04/19 09:30:26;;;;;;;0.35;0.35;;;18.90;52.30;;;;;;5090681;28;20396;-69
2022/04/19 09:33:07;;;;;;;0.40;0.40;;;19.00;50.00;;;;;;5090633;28;20122;-69
2022/04/19 09:35:44;;;;;;;0.38;0.38;;;19.10;50.80;;;;;;5090454;28;20128;-69
2022/04/19 09:38:10;;;;;;;12.85;0.70;;;19.30;50.70;;;;;;5089132;28;20048;-69
2022/04/19 09:40:46;;;;;;;1.30;0.88;;;19.50;50.00;;;;;;5090916;28;20433;-69
2022/04/19 09:43:21;;;;;;;0.70;0.70;;;19.50;50.50;;;;;;5123086;27;20044;-69
2022/04/19 09:45:56;;;;;;;1.80;1.02;;;19.50;50.00;;;;;;5089950;28;20048;-69
2022/04/19 09:48:33;;;;;;;2.15;1.70;;;19.40;49.60;;;;;;5086381;28;20043;-68
2022/04/19 09:51:07;;;;;;;0.45;0.45;;;19.30;49.60;;;;;;5069134;28;20048;-69
2022/04/19 09:53:42;;;;;;;0.40;0.40;;;19.40;50.50;;;;;;5069533;28;20135;-69
2022/04/19 09:56:19;;;;;;;0.25;0.25;;;19.50;50.90;;;;;;5075107;28;20388;-69
2022/04/19 09:58:47;;;;;;;1.02;0.90;;;19.50;50.70;;;;;;5089989;28;20151;-69
2022/04/19 10:09:47;;;;;;;1.00;0.77;;;19.00;50.20;;;;;;5124317;27;20040;-69
2022/04/19 10:12:13;;;;;;;0.82;0.82;;;18.90;51.30;;;;;;5072236;28;20047;-69
2022/04/19 10:14:39;;;;;;;2.78;1.20;;;18.90;52.20;;;;;;5089886;28;20048;-69
2022/04/19 10:17:05;;;;;;;0.65;0.65;;;18.90;50.40;;;;;;5088839;28;20048;-69
2022/04/19 10:19:32;;;;;;;0.90;0.90;;;18.90;50.50;;;;;;5056100;28;20377;-69
2022/04/19 10:22:05;;;;;;;0.65;0.65;;;18.70;50.60;;;;;;5052415;28;20101;-69
2022/04/19 10:24:48;;;;;;;2.10;1.42;;;18.80;51.20;;;;;;5058172;28;20052;-69
2022/04/19 10:27:13;;;;;;;;;;;18.70;51.80;;;;;;5105348;28;20046;-69
2022/04/19 10:29:40;;;;;;;1.40;1.20;;;18.70;50.00;;;;;;5089784;28;20307;-69
2022/04/19 10:32:08;;;;;;;1.45;1.17;;;18.60;49.40;;;;;;5077140;28;20040;-69
2022/04/19 10:34:39;;;;;;;1.52;1.30;;;18.30;49.60;;;;;;5076564;28;20037;-69
2022/04/19 10:37:21;;;;;;;0.47;0.47;;;18.20;49.80;;;;;;5089062;28;20046;-69
2022/04/19 10:39:52;;;;;;;0.65;0.65;;;18.20;52.30;;;;;;5066749;28;20043;-69
2022/04/19 10:42:38;;;;;;;7.03;1.20;;;18.30;51.80;;;;;;5082379;28;20043;-69
2022/04/19 10:45:13;;;;;;;0.50;0.50;;;18.20;52.40;;;;;;5084256;28;20044;-69
2022/04/19 10:47:53;;;;;;;1.70;0.88;;;18.30;53.50;;;;;;5071331;28;20044;-70
2022/04/19 10:50:29;;;;;;;1.42;0.93;;;18.50;52.40;;;;;;5085560;28;20046;-69
2022/04/19 10:53:08;;;;;;;1.40;0.90;;;18.60;51.80;;;;;;5077561;28;20070;-69
2022/04/19 10:55:36;;;;;;;0.45;0.45;;;18.50;51.90;;;;;;5075452;28;20115;-69
2022/04/19 10:58:17;;;;;;;19.88;0.88;;;18.50;52.40;;;;;;5074699;28;20048;-69
2022/04/19 11:00:46;;;;;;;1.00;0.82;;;18.50;52.60;;;;;;5050020;28;20041;-69
2022/04/19 11:03:35;;;;;;;0.30;0.30;;;18.60;53.60;;;;;;5072263;28;20489;-69
2022/04/19 11:06:02;;;;;;;0.30;0.30;;;18.70;53.60;;;;;;5069146;28;20677;-69
2022/04/19 11:08:31;;;;;;;2.08;1.15;;;18.90;53.20;;;;;;5074493;28;20040;-69
2022/04/19 11:11:02;;;;;;;0.90;0.82;;;18.90;51.30;;;;;;5066924;28;20394;-69
2022/04/19 11:13:31;;;;;;;1.58;1.13;;;18.70;51.90;;;;;;5111035;27;20071;-69
2022/04/19 11:16:05;;;;;;;1.67;1.50;;;18.60;52.40;;;;;;5110576;27;20803;-69
2022/04/19 11:18:37;;;;;;;1.20;1.10;;;18.60;52.80;;;;;;5111820;27;20047;-69
2022/04/19 11:21:15;;;;;;;1.63;0.95;;;18.50;51.70;;;;;;5065929;28;20496;-69
2022/04/19 11:23:45;;;;;;;4.88;1.95;;;18.50;52.00;;;;;;5121541;27;20598;-69
2022/04/19 11:26:26;;;;;;;1.30;1.02;;;18.40;51.40;;;;;;5086714;28;20040;-70
2022/04/19 11:29:10;;;;;;;1.52;1.40;;;18.20;51.00;;;;;;5088541;28;20075;-70
2022/04/19 11:31:45;;;;;;;0.98;0.95;;;18.00;51.80;;;;;;5069686;28;20496;-70
2022/04/19 11:34:16;;;;;;;1.13;1.02;;;18.00;53.20;;;;;;5088959;28;20131;-70
2022/04/19 11:36:42;;;;;;;7.93;1.52;;;18.10;53.30;;;;;;5076662;28;20059;-70
2022/04/19 11:39:08;;;;;;;0.80;0.80;;;18.20;54.00;;;;;;5086086;28;20059;-70
2022/04/19 11:46:47;;;;;;;2.13;1.25;;;18.60;53.60;;;;;;5073590;28;20500;-70
2022/04/19 11:49:16;;;;;;;2.08;1.27;;;18.70;53.50;;;;;;5104748;27;20040;-70
2022/04/19 11:52:11;;;;;;;3.33;1.75;;;18.80;53.80;;;;;;5061549;28;20051;-70
2022/04/19 11:54:39;;;;;;;9.85;1.90;;;18.90;51.00;;;;;;5029257;28;20060;-70
2022/04/19 11:57:07;;;;;;;1.45;1.35;;;18.70;51.90;;;;;;5031389;28;20486;-70
2022/04/19 11:59:36;;;;;;;1.15;1.05;;;18.60;52.20;;;;;;5029395;28;20532;-70
2022/04/19 12:02:04;;;;;;;1.02;0.98;;;18.50;52.80;;;;;;5045937;28;20535;-70
2022/04/19 12:04:30;;;;;;;2.00;1.05;;;18.60;53.00;;;;;;5048472;28;20082;-70
2022/04/19 12:07:01;;;;;;;1.58;1.48;;;18.50;52.10;;;;;;5032115;28;20045;-70
2022/04/19 12:09:28;;;;;;;1.38;1.27;;;18.60;51.60;;;;;;5045403;28;20036;-70
2022/04/19 12:11:55;;;;;;;1.10;1.00;;;18.60;52.30;;;;;;5048588;28;20539;-70
2022/04/19 12:14:28;;;;;;;1.73;1.48;;;18.60;52.10;;;;;;5046378;28;20044;-70
2022/04/19 12:16:57;;;;;;;4.13;1.42;;;18.70;50.80;;;;;;5041153;28;20044;-70
2022/04/19 12:19:39;;;;;;;3.70;1.50;;;18.60;51.50;;;;;;5030052;28;20527;-70
2022/04/19 12:22:22;;;;;;;0.70;0.70;;;18.60;52.40;;;;;;5065352;28;20426;-70
2022/04/19 12:24:58;;;;;;;0.68;0.68;;;18.60;52.50;;;;;;5045190;28;20539;-70
2022/04/19 12:27:28;;;;;;;1.67;1.30;;;18.80;53.50;;;;;;5062725;28;20052;-70
2022/04/19 12:30:20;;;;;;;1.45;0.93;;;18.90;51.30;;;;;;5034512;28;20116;-70
2022/04/19 12:32:57;;;;;;;1.63;1.50;;;18.90;51.40;;;;;;5079196;28;20128;-70
2022/04/19 12:35:34;;;;;;;2.63;1.30;;;18.80;49.70;;;;;;5087820;28;20089;-70
2022/04/19 12:38:13;;;;;;;1.73;1.27;;;18.50;50.50;;;;;;5086165;28;20511;-70
2022/04/19 12:40:40;;;;;;;1.58;1.10;;;18.50;51.40;;;;;;5087766;28;20040;-70
2022/04/19 12:43:06;;;;;;;1.35;1.25;;;18.50;51.60;;;;;;5085619;28;20407;-70
2022/04/19 12:45:37;;;;;;;1.13;1.10;;;18.50;51.60;;;;;;5088955;28;20047;-69
2022/04/19 12:48:04;;;;;;;0.75;0.73;;;18.40;51.40;;;;;;5068130;28;20477;-70
2022/04/19 12:50:30;;;;;;;0.70;0.70;;;18.40;52.60;;;;;;5066354;28;20040;-69
2022/04/19 12:52:56;;;;;;;1.27;1.17;;;18.60;53.20;;;;;;5095013;28;20047;-70
2022/04/19 12:55:31;;;;;;;0.55;0.55;;;18.80;52.80;;;;;;5090353;28;20128;-70
2022/04/19 12:58:09;;;;;;;3.35;1.13;;;18.90;52.90;;;;;;5063381;28;20036;-70
2022/04/19 13:00:36;;;;;;;0.82;0.82;;;19.00;51.90;;;;;;5078037;28;20040;-70
2022/04/19 13:03:02;;;;;;;0.32;0.32;;;19.00;52.10;;;;;;5089329;28;20590;-70
2022/04/19 13:13:43;;;;;;;1.38;1.27;;;19.00;50.90;;;;;;5091090;28;20052;-70
2022/04/19 13:16:09;;;;;;;0.60;0.60;;;18.80;50.30;;;;;;5089554;28;20465;-70
2022/04/19 13:18:34;;;;;;;0.90;0.90;;;18.70;51.10;;;;;;5091817;28;20044;-69
2022/04/19 13:21:00;;;;;;;2.35;1.48;;;18.70;52.60;;;;;;5097829;28;20056;-70
2022/04/19 13:23:26;;;;;;;1.05;1.00;;;18.80;52.80;;;;;;5087278;28;20761;-70
2022/04/19 13:25:55;;;;;;;2.15;1.42;;;18.80;52.60;;;;;;5073160;28;20032;-70
2022/04/19 13:28:25;;;;;;;1.42;1.33;;;18.90;51.60;;;;;;5090259;28;20488;-70
2022/04/19 13:30:54;;;;;;;1.00;1.00;;;18.70;52.80;;;;;;5097242;28;20047;-70
2022/04/19 13:33:20;;;;;;;0.52;0.52;;;18.80;53.10;;;;;;5066218;28;20425;-70
2022/04/19 13:35:45;;;;;;;1.27;1.17;;;18.90;53.50;;;;;;5106136;28;20181;-70
2022/04/19 13:38:23;;;;;;;1.95;1.67;;;19.10;53.60;;;;;;5060030;28;20041;-70
2022/04/19 13:40:48;;;;;;;1.95;1.50;;;19.30;53.30;;;;;;5113808;27;20044;-70
2022/04/19 13:43:14;;;;;;;2.67;1.90;;;19.30;52.20;;;;;;5116470;27;20127;-70
2022/04/19 13:45:40;;;;;;;1.98;1.35;;;19.20;51.00;;;;;;5060185;28;20447;-70
2022/04/19 13:48:05;;;;;;;2.03;1.73;;;19.10;51.70;;;;;;5053743;28;20036;-70